Aérodrome :
LOGIN :

S'inscrire | Disclaimer

   EN    FR    IT 

 










Légende :    VFR   VFR Marginal   IFR   IFR Intensif   IFR Très Intensif
Visi : 
Plafond : 
>= 8 km
>= 3000ft
5 à 8 km
1000 à 3000 ft
1500m à 5 km
500 à 1000 ft
800 à 1500m
200 à 500 ft
< 800m
< 200 ft
Symboles :   Orages  Brouillard  Fortes neiges  Fortes précipitations  Vent > 20 kt
SIGMETs :   Divers  Orages  Givrage  Turbulence  Onde Orograph.  Cendres Volcan.







- Altitude de l'aérodrome : 65 ft
- Code IATA : PIK
- Voir les cartes d'approche


EGPK - Glasgow Prestwick

DERNIER METAR :
  • 161650Z 19013KT 150V220 9999 -RA FEW008 SCT018 BKN036 16/13 Q1007

METARs EXPIRÉS :
  • 161620Z 19013KT 9999 FEW008 SCT020 BKN036 16/13 Q1007
  • 161550Z 19014G24KT 150V220 9999 FEW008 SCT020 BKN036 16/13 Q1007
  • 161520Z 19012KT 9999 FEW008 SCT020 BKN036 16/13 Q1008
  • 161450Z 19016KT 9999 FEW008 SCT020 BKN036 17/13 Q1008
  • 161420Z 18017KT 140V210 9999 -RA FEW008 SCT020 BKN036 16/13 Q1008

TAF TAF EGPK
Valide du 16 à 12h jusqu'au 17 à 12h UTC


161054Z 1612/1712 17014KT 9999 SCT025
TEMPO 1612/1623 18018G33KT 6000 RA BKN010
PROB40
TEMPO 1616/1621 4000 +RA BKN006
PROB30
TEMPO 1710/1712 7000 SHRA
Pas de NOTAMs connus pour ce terrain.
1 SIGMET publié pour la FIR Scottish (EGPX) :
 
Orages noyés dans la masse
EGPX SIGMET 01 VALID 161600/161800 EGRR
EGPX SCOTTISH FIR EMBD TS FCST WI N5905 W00635 - N5740 W00633 - N5737 W00848 - N5904 W00914 - N5905 W00635 TOP FL300 MOV NE 15KT NC=



MET'MAP, la Météo Aéronautique d'un coup d'oeil ! - Copyright ORBIFLY Décembre 2007 - Disclaimer

ORBIFLY MET'MAP TEAM :

Programmation & Développement : Alexandra Zaïnal
Conception & Développement : Baudouin d'Aumeries
Co-Programmation & Développement : Marc-Olivier Méhu
Soutien technique & logistique : Manuel Goepfert

Contact : metmap@orbifly.com




SOURCES & CREDITS :

   NOAA